sensor_id;sensor_type;location;lat;lon;timestamp;P1;durP1;ratioP1;P2;durP2;ratioP2
787;SDS011;16074;42.708;23.312;2022-10-17T00:00:58;14.65;;;12.98;;
787;SDS011;16074;42.708;23.312;2022-10-17T00:03:26;15.93;;;12.95;;
787;SDS011;16074;42.708;23.312;2022-10-17T00:05:55;17.02;;;12.23;;
787;SDS011;16074;42.708;23.312;2022-10-17T00:08:24;13.55;;;11.18;;
787;SDS011;16074;42.708;23.312;2022-10-17T00:10:56;13.25;;;11.85;;
787;SDS011;16074;42.708;23.312;2022-10-17T00:13:25;16.15;;;12.63;;
787;SDS011;16074;42.708;23.312;2022-10-17T00:15:55;12.45;;;11.25;;
787;SDS011;16074;42.708;23.312;2022-10-17T00:18:23;17.00;;;11.55;;
787;SDS011;16074;42.708;23.312;2022-10-17T00:20:52;13.77;;;12.48;;
787;SDS011;16074;42.708;23.312;2022-10-17T00:23:20;16.40;;;13.20;;
787;SDS011;16074;42.708;23.312;2022-10-17T00:25:56;14.20;;;12.70;;
787;SDS011;16074;42.708;23.312;2022-10-17T00:28:25;13.00;;;11.68;;
787;SDS011;16074;42.708;23.312;2022-10-17T00:30:56;14.15;;;12.55;;
787;SDS011;16074;42.708;23.312;2022-10-17T00:33:25;17.48;;;13.38;;
787;SDS011;16074;42.708;23.312;2022-10-17T00:36:01;19.52;;;13.52;;
787;SDS011;16074;42.708;23.312;2022-10-17T00:38:30;15.10;;;12.25;;
787;SDS011;16074;42.708;23.312;2022-10-17T00:40:58;13.32;;;11.93;;
787;SDS011;16074;42.708;23.312;2022-10-17T00:43:27;11.70;;;10.60;;
787;SDS011;16074;42.708;23.312;2022-10-17T00:45:57;13.93;;;12.52;;
787;SDS011;16074;42.708;23.312;2022-10-17T00:48:26;15.00;;;12.07;;
787;SDS011;16074;42.708;23.312;2022-10-17T00:50:54;14.88;;;12.90;;
787;SDS011;16074;42.708;23.312;2022-10-17T00:53:24;16.23;;;12.90;;
787;SDS011;16074;42.708;23.312;2022-10-17T00:55:58;15.25;;;12.88;;
787;SDS011;16074;42.708;23.312;2022-10-17T00:58:26;14.65;;;12.20;;
787;SDS011;16074;42.708;23.312;2022-10-17T01:00:54;14.38;;;12.98;;
787;SDS011;16074;42.708;23.312;2022-10-17T01:03:28;15.57;;;13.43;;
787;SDS011;16074;42.708;23.312;2022-10-17T01:05:57;15.00;;;12.93;;
787;SDS011;16074;42.708;23.312;2022-10-17T01:08:26;16.45;;;13.10;;
787;SDS011;16074;42.708;23.312;2022-10-17T01:10:56;14.73;;;13.27;;
787;SDS011;16074;42.708;23.312;2022-10-17T01:13:32;15.07;;;12.25;;
787;SDS011;16074;42.708;23.312;2022-10-17T01:16:07;17.92;;;11.95;;
787;SDS011;16074;42.708;23.312;2022-10-17T01:18:47;15.77;;;12.30;;
787;SDS011;16074;42.708;23.312;2022-10-17T01:21:24;11.77;;;10.27;;
787;SDS011;16074;42.708;23.312;2022-10-17T01:24:12;17.48;;;11.93;;
787;SDS011;16074;42.708;23.312;2022-10-17T01:27:10;16.63;;;13.00;;
787;SDS011;16074;42.708;23.312;2022-10-17T01:30:00;14.15;;;12.35;;
787;SDS011;16074;42.708;23.312;2022-10-17T01:32:43;15.00;;;13.45;;
787;SDS011;16074;42.708;23.312;2022-10-17T01:35:18;16.23;;;12.43;;
787;SDS011;16074;42.708;23.312;2022-10-17T01:37:50;13.23;;;11.88;;
787;SDS011;16074;42.708;23.312;2022-10-17T01:40:24;15.00;;;11.75;;
787;SDS011;16074;42.708;23.312;2022-10-17T01:42:58;15.48;;;13.40;;
787;SDS011;16074;42.708;23.312;2022-10-17T01:45:36;15.85;;;13.05;;
787;SDS011;16074;42.708;23.312;2022-10-17T01:48:12;18.92;;;12.20;;
787;SDS011;16074;42.708;23.312;2022-10-17T01:50:45;17.30;;;13.20;;
787;SDS011;16074;42.708;23.312;2022-10-17T01:53:19;15.05;;;13.65;;
787;SDS011;16074;42.708;23.312;2022-10-17T01:55:53;15.18;;;11.90;;
787;SDS011;16074;42.708;23.312;2022-10-17T01:58:27;16.23;;;14.00;;
787;SDS011;16074;42.708;23.312;2022-10-17T02:01:00;14.70;;;12.40;;
787;SDS011;16074;42.708;23.312;2022-10-17T02:03:33;17.25;;;14.25;;
787;SDS011;16074;42.708;23.312;2022-10-17T02:06:04;16.60;;;11.98;;
787;SDS011;16074;42.708;23.312;2022-10-17T02:08:39;13.20;;;11.77;;
787;SDS011;16074;42.708;23.312;2022-10-17T02:11:10;14.93;;;12.10;;
787;SDS011;16074;42.708;23.312;2022-10-17T02:13:46;15.05;;;11.82;;
787;SDS011;16074;42.708;23.312;2022-10-17T02:16:28;12.40;;;10.68;;
787;SDS011;16074;42.708;23.312;2022-10-17T02:19:17;13.63;;;11.48;;
787;SDS011;16074;42.708;23.312;2022-10-17T02:22:15;14.15;;;10.85;;
787;SDS011;16074;42.708;23.312;2022-10-17T02:24:53;14.23;;;11.43;;
787;SDS011;16074;42.708;23.312;2022-10-17T02:27:31;12.77;;;10.18;;
787;SDS011;16074;42.708;23.312;2022-10-17T02:30:07;11.05;;;8.95;;
787;SDS011;16074;42.708;23.312;2022-10-17T02:32:39;11.75;;;10.45;;
787;SDS011;16074;42.708;23.312;2022-10-17T02:35:20;11.00;;;9.90;;
787;SDS011;16074;42.708;23.312;2022-10-17T02:37:52;11.88;;;10.68;;
787;SDS011;16074;42.708;23.312;2022-10-17T02:40:21;10.52;;;9.30;;
787;SDS011;16074;42.708;23.312;2022-10-17T02:42:51;10.35;;;9.30;;
787;SDS011;16074;42.708;23.312;2022-10-17T02:45:21;11.55;;;9.90;;
787;SDS011;16074;42.708;23.312;2022-10-17T02:47:53;11.73;;;10.45;;
787;SDS011;16074;42.708;23.312;2022-10-17T02:50:28;13.05;;;10.65;;
787;SDS011;16074;42.708;23.312;2022-10-17T02:53:06;14.65;;;10.25;;
787;SDS011;16074;42.708;23.312;2022-10-17T02:55:40;19.10;;;10.95;;
787;SDS011;16074;42.708;23.312;2022-10-17T02:58:16;9.65;;;8.65;;
787;SDS011;16074;42.708;23.312;2022-10-17T03:00:48;11.07;;;8.68;;
787;SDS011;16074;42.708;23.312;2022-10-17T03:03:18;11.65;;;9.10;;
787;SDS011;16074;42.708;23.312;2022-10-17T03:05:49;11.23;;;9.32;;
787;SDS011;16074;42.708;23.312;2022-10-17T03:08:21;11.25;;;8.60;;
787;SDS011;16074;42.708;23.312;2022-10-17T03:10:49;9.73;;;8.05;;
787;SDS011;16074;42.708;23.312;2022-10-17T03:13:19;10.35;;;9.15;;
787;SDS011;16074;42.708;23.312;2022-10-17T03:15:48;11.80;;;8.30;;
787;SDS011;16074;42.708;23.312;2022-10-17T03:18:16;9.98;;;9.07;;
787;SDS011;16074;42.708;23.312;2022-10-17T03:20:46;11.23;;;7.55;;
787;SDS011;16074;42.708;23.312;2022-10-17T03:23:16;9.80;;;8.40;;
787;SDS011;16074;42.708;23.312;2022-10-17T03:25:45;8.85;;;7.82;;
787;SDS011;16074;42.708;23.312;2022-10-17T03:28:14;9.25;;;7.80;;
787;SDS011;16074;42.708;23.312;2022-10-17T03:30:43;11.90;;;7.80;;
787;SDS011;16074;42.708;23.312;2022-10-17T03:33:11;9.57;;;8.15;;
787;SDS011;16074;42.708;23.312;2022-10-17T03:35:39;8.73;;;7.55;;
787;SDS011;16074;42.708;23.312;2022-10-17T03:38:09;7.90;;;7.20;;
787;SDS011;16074;42.708;23.312;2022-10-17T03:40:39;13.63;;;7.65;;
787;SDS011;16074;42.708;23.312;2022-10-17T03:43:08;8.30;;;6.72;;
787;SDS011;16074;42.708;23.312;2022-10-17T03:45:39;8.32;;;7.65;;
787;SDS011;16074;42.708;23.312;2022-10-17T03:48:07;7.68;;;6.90;;
787;SDS011;16074;42.708;23.312;2022-10-17T03:50:35;7.90;;;7.20;;
787;SDS011;16074;42.708;23.312;2022-10-17T03:53:03;8.38;;;7.50;;
787;SDS011;16074;42.708;23.312;2022-10-17T03:55:32;8.00;;;7.20;;
787;SDS011;16074;42.708;23.312;2022-10-17T03:58:01;8.20;;;7.45;;
787;SDS011;16074;42.708;23.312;2022-10-17T04:00:30;10.43;;;7.75;;
787;SDS011;16074;42.708;23.312;2022-10-17T04:02:58;9.25;;;8.38;;
787;SDS011;16074;42.708;23.312;2022-10-17T04:05:26;12.65;;;9.02;;
787;SDS011;16074;42.708;23.312;2022-10-17T04:07:55;11.05;;;9.80;;
787;SDS011;16074;42.708;23.312;2022-10-17T04:10:49;10.18;;;8.70;;
787;SDS011;16074;42.708;23.312;2022-10-17T04:13:18;9.30;;;8.40;;
787;SDS011;16074;42.708;23.312;2022-10-17T04:15:52;8.88;;;7.97;;
787;SDS011;16074;42.708;23.312;2022-10-17T04:18:21;11.63;;;8.15;;
787;SDS011;16074;42.708;23.312;2022-10-17T04:20:49;9.52;;;8.57;;
787;SDS011;16074;42.708;23.312;2022-10-17T04:23:19;8.80;;;7.90;;
787;SDS011;16074;42.708;23.312;2022-10-17T04:25:52;9.13;;;8.05;;
787;SDS011;16074;42.708;23.312;2022-10-17T04:28:25;9.82;;;8.07;;
787;SDS011;16074;42.708;23.312;2022-10-17T04:30:55;13.48;;;8.30;;
787;SDS011;16074;42.708;23.312;2022-10-17T04:33:26;9.43;;;8.40;;
787;SDS011;16074;42.708;23.312;2022-10-17T04:35:55;11.18;;;9.57;;
787;SDS011;16074;42.708;23.312;2022-10-17T04:38:25;10.43;;;9.45;;
787;SDS011;16074;42.708;23.312;2022-10-17T04:40:55;13.70;;;10.73;;
787;SDS011;16074;42.708;23.312;2022-10-17T04:43:25;11.30;;;10.05;;
787;SDS011;16074;42.708;23.312;2022-10-17T04:45:53;16.83;;;10.60;;
787;SDS011;16074;42.708;23.312;2022-10-17T04:48:23;13.27;;;10.93;;
787;SDS011;16074;42.708;23.312;2022-10-17T04:50:52;11.90;;;10.70;;
787;SDS011;16074;42.708;23.312;2022-10-17T04:53:36;14.80;;;11.07;;
787;SDS011;16074;42.708;23.312;2022-10-17T04:56:09;14.90;;;10.75;;
787;SDS011;16074;42.708;23.312;2022-10-17T04:58:40;14.18;;;9.82;;
787;SDS011;16074;42.708;23.312;2022-10-17T05:01:09;14.00;;;11.25;;
787;SDS011;16074;42.708;23.312;2022-10-17T05:03:41;22.48;;;11.57;;
787;SDS011;16074;42.708;23.312;2022-10-17T05:06:10;14.23;;;10.95;;
787;SDS011;16074;42.708;23.312;2022-10-17T05:08:42;12.60;;;10.55;;
787;SDS011;16074;42.708;23.312;2022-10-17T05:11:15;15.07;;;11.68;;
787;SDS011;16074;42.708;23.312;2022-10-17T05:13:49;12.65;;;10.75;;
787;SDS011;16074;42.708;23.312;2022-10-17T05:16:18;11.65;;;10.10;;
787;SDS011;16074;42.708;23.312;2022-10-17T05:18:47;23.90;;;11.63;;
787;SDS011;16074;42.708;23.312;2022-10-17T05:21:19;11.80;;;9.80;;
787;SDS011;16074;42.708;23.312;2022-10-17T05:23:48;11.40;;;10.20;;
787;SDS011;16074;42.708;23.312;2022-10-17T05:26:16;16.10;;;11.52;;
787;SDS011;16074;42.708;23.312;2022-10-17T05:28:45;14.52;;;11.10;;
787;SDS011;16074;42.708;23.312;2022-10-17T05:31:15;17.85;;;11.95;;
787;SDS011;16074;42.708;23.312;2022-10-17T05:33:43;16.27;;;11.23;;
787;SDS011;16074;42.708;23.312;2022-10-17T05:36:12;13.75;;;12.20;;
787;SDS011;16074;42.708;23.312;2022-10-17T05:38:42;14.55;;;12.23;;
787;SDS011;16074;42.708;23.312;2022-10-17T05:41:10;17.92;;;12.90;;
787;SDS011;16074;42.708;23.312;2022-10-17T05:43:38;16.65;;;12.07;;
787;SDS011;16074;42.708;23.312;2022-10-17T05:46:06;20.77;;;12.10;;
787;SDS011;16074;42.708;23.312;2022-10-17T05:48:36;16.58;;;12.85;;
787;SDS011;16074;42.708;23.312;2022-10-17T05:51:06;13.57;;;12.02;;
787;SDS011;16074;42.708;23.312;2022-10-17T05:53:37;15.45;;;13.15;;
787;SDS011;16074;42.708;23.312;2022-10-17T05:56:14;13.52;;;11.85;;
787;SDS011;16074;42.708;23.312;2022-10-17T05:58:42;17.60;;;12.82;;
787;SDS011;16074;42.708;23.312;2022-10-17T06:01:36;20.27;;;13.52;;
787;SDS011;16074;42.708;23.312;2022-10-17T06:04:06;17.23;;;13.75;;
787;SDS011;16074;42.708;23.312;2022-10-17T06:06:35;14.32;;;12.82;;
787;SDS011;16074;42.708;23.312;2022-10-17T06:09:04;18.67;;;13.00;;
787;SDS011;16074;42.708;23.312;2022-10-17T06:11:37;20.80;;;13.65;;
787;SDS011;16074;42.708;23.312;2022-10-17T06:14:06;22.35;;;14.35;;
787;SDS011;16074;42.708;23.312;2022-10-17T06:16:36;23.88;;;12.45;;
787;SDS011;16074;42.708;23.312;2022-10-17T06:19:05;15.98;;;12.88;;
787;SDS011;16074;42.708;23.312;2022-10-17T06:21:33;15.75;;;12.23;;
787;SDS011;16074;42.708;23.312;2022-10-17T06:24:11;18.58;;;13.02;;
787;SDS011;16074;42.708;23.312;2022-10-17T06:26:40;16.50;;;12.73;;
787;SDS011;16074;42.708;23.312;2022-10-17T06:29:11;17.30;;;12.30;;
787;SDS011;16074;42.708;23.312;2022-10-17T06:31:46;17.65;;;11.65;;
787;SDS011;16074;42.708;23.312;2022-10-17T06:34:15;13.73;;;10.93;;
787;SDS011;16074;42.708;23.312;2022-10-17T06:36:44;13.48;;;12.02;;
787;SDS011;16074;42.708;23.312;2022-10-17T06:39:13;13.35;;;11.20;;
787;SDS011;16074;42.708;23.312;2022-10-17T06:41:52;15.35;;;12.02;;
787;SDS011;16074;42.708;23.312;2022-10-17T06:44:33;12.98;;;11.13;;
787;SDS011;16074;42.708;23.312;2022-10-17T06:47:20;11.95;;;10.93;;
787;SDS011;16074;42.708;23.312;2022-10-17T06:49:52;12.48;;;11.18;;
787;SDS011;16074;42.708;23.312;2022-10-17T06:52:29;14.13;;;11.95;;
787;SDS011;16074;42.708;23.312;2022-10-17T06:55:19;14.98;;;12.88;;
787;SDS011;16074;42.708;23.312;2022-10-17T06:58:06;21.02;;;12.00;;
787;SDS011;16074;42.708;23.312;2022-10-17T07:01:04;18.45;;;12.25;;
787;SDS011;16074;42.708;23.312;2022-10-17T07:03:34;13.30;;;12.00;;
787;SDS011;16074;42.708;23.312;2022-10-17T07:06:05;20.37;;;13.60;;
787;SDS011;16074;42.708;23.312;2022-10-17T07:08:33;13.63;;;12.27;;
787;SDS011;16074;42.708;23.312;2022-10-17T07:11:07;16.60;;;14.97;;
787;SDS011;16074;42.708;23.312;2022-10-17T07:13:36;16.07;;;14.30;;
787;SDS011;16074;42.708;23.312;2022-10-17T07:16:05;16.37;;;14.57;;
787;SDS011;16074;42.708;23.312;2022-10-17T07:18:36;27.23;;;24.10;;
787;SDS011;16074;42.708;23.312;2022-10-17T07:21:07;19.13;;;17.13;;
787;SDS011;16074;42.708;23.312;2022-10-17T07:23:38;17.40;;;15.77;;
787;SDS011;16074;42.708;23.312;2022-10-17T07:26:08;19.87;;;16.13;;
787;SDS011;16074;42.708;23.312;2022-10-17T07:28:39;18.13;;;16.30;;
787;SDS011;16074;42.708;23.312;2022-10-17T07:31:39;14.77;;;13.37;;
787;SDS011;16074;42.708;23.312;2022-10-17T07:34:07;18.90;;;15.07;;
787;SDS011;16074;42.708;23.312;2022-10-17T07:36:37;17.37;;;15.47;;
787;SDS011;16074;42.708;23.312;2022-10-17T07:39:06;18.13;;;15.60;;
787;SDS011;16074;42.708;23.312;2022-10-17T07:41:36;19.80;;;15.93;;
787;SDS011;16074;42.708;23.312;2022-10-17T07:44:05;16.20;;;14.70;;
787;SDS011;16074;42.708;23.312;2022-10-17T07:46:39;17.60;;;15.67;;
787;SDS011;16074;42.708;23.312;2022-10-17T07:49:07;16.40;;;14.70;;
787;SDS011;16074;42.708;23.312;2022-10-17T07:51:36;20.10;;;14.80;;
787;SDS011;16074;42.708;23.312;2022-10-17T07:54:05;18.67;;;16.57;;
787;SDS011;16074;42.708;23.312;2022-10-17T07:56:33;17.50;;;15.87;;
787;SDS011;16074;42.708;23.312;2022-10-17T07:59:01;17.07;;;15.57;;
787;SDS011;16074;42.708;23.312;2022-10-17T08:01:35;18.00;;;16.37;;
787;SDS011;16074;42.708;23.312;2022-10-17T08:04:03;19.03;;;15.50;;
787;SDS011;16074;42.708;23.312;2022-10-17T08:06:31;18.03;;;15.23;;
787;SDS011;16074;42.708;23.312;2022-10-17T08:09:01;17.33;;;14.63;;
787;SDS011;16074;42.708;23.312;2022-10-17T08:11:30;16.80;;;14.30;;
787;SDS011;16074;42.708;23.312;2022-10-17T08:13:58;18.13;;;16.00;;
787;SDS011;16074;42.708;23.312;2022-10-17T08:16:26;18.07;;;16.20;;
787;SDS011;16074;42.708;23.312;2022-10-17T08:18:54;19.00;;;17.10;;
787;SDS011;16074;42.708;23.312;2022-10-17T08:21:22;19.73;;;15.47;;
787;SDS011;16074;42.708;23.312;2022-10-17T08:23:50;19.63;;;16.97;;
787;SDS011;16074;42.708;23.312;2022-10-17T08:26:20;19.63;;;15.00;;
787;SDS011;16074;42.708;23.312;2022-10-17T08:28:48;19.10;;;14.77;;
787;SDS011;16074;42.708;23.312;2022-10-17T08:31:17;17.40;;;14.80;;
787;SDS011;16074;42.708;23.312;2022-10-17T08:33:46;16.87;;;15.00;;
787;SDS011;16074;42.708;23.312;2022-10-17T08:36:17;17.27;;;15.57;;
787;SDS011;16074;42.708;23.312;2022-10-17T08:38:46;15.67;;;14.00;;
787;SDS011;16074;42.708;23.312;2022-10-17T08:41:24;15.60;;;14.07;;
787;SDS011;16074;42.708;23.312;2022-10-17T08:44:10;15.73;;;14.30;;
787;SDS011;16074;42.708;23.312;2022-10-17T08:46:47;15.30;;;13.80;;
787;SDS011;16074;42.708;23.312;2022-10-17T08:49:34;14.97;;;13.40;;
787;SDS011;16074;42.708;23.312;2022-10-17T08:52:06;15.20;;;13.70;;
787;SDS011;16074;42.708;23.312;2022-10-17T08:54:44;12.70;;;11.60;;
787;SDS011;16074;42.708;23.312;2022-10-17T08:57:16;13.13;;;11.93;;
787;SDS011;16074;42.708;23.312;2022-10-17T08:59:44;9.80;;;8.80;;
787;SDS011;16074;42.708;23.312;2022-10-17T09:02:28;11.60;;;10.43;;
787;SDS011;16074;42.708;23.312;2022-10-17T09:05:13;9.93;;;8.77;;
787;SDS011;16074;42.708;23.312;2022-10-17T09:07:56;8.20;;;7.50;;
787;SDS011;16074;42.708;23.312;2022-10-17T09:10:37;7.93;;;7.27;;
787;SDS011;16074;42.708;23.312;2022-10-17T09:13:18;7.17;;;6.63;;
787;SDS011;16074;42.708;23.312;2022-10-17T09:16:00;8.57;;;7.87;;
787;SDS011;16074;42.708;23.312;2022-10-17T09:18:37;9.77;;;8.60;;
787;SDS011;16074;42.708;23.312;2022-10-17T09:21:11;8.73;;;8.03;;
787;SDS011;16074;42.708;23.312;2022-10-17T09:23:47;9.23;;;8.33;;
787;SDS011;16074;42.708;23.312;2022-10-17T09:26:35;9.23;;;8.27;;
787;SDS011;16074;42.708;23.312;2022-10-17T09:29:10;12.23;;;7.73;;
787;SDS011;16074;42.708;23.312;2022-10-17T09:31:48;8.90;;;8.00;;
787;SDS011;16074;42.708;23.312;2022-10-17T09:34:25;9.23;;;8.40;;
787;SDS011;16074;42.708;23.312;2022-10-17T09:36:56;8.90;;;8.10;;
787;SDS011;16074;42.708;23.312;2022-10-17T09:39:26;7.17;;;6.47;;
787;SDS011;16074;42.708;23.312;2022-10-17T09:41:58;8.00;;;7.20;;
787;SDS011;16074;42.708;23.312;2022-10-17T09:44:30;16.23;;;8.23;;
787;SDS011;16074;42.708;23.312;2022-10-17T09:49:49;10.40;;;8.03;;
787;SDS011;16074;42.708;23.312;2022-10-17T09:52:19;9.23;;;8.10;;
787;SDS011;16074;42.708;23.312;2022-10-17T09:54:49;10.40;;;8.50;;
787;SDS011;16074;42.708;23.312;2022-10-17T09:57:20;9.00;;;8.10;;
787;SDS011;16074;42.708;23.312;2022-10-17T09:59:56;10.40;;;6.20;;
787;SDS011;16074;42.708;23.312;2022-10-17T10:02:26;6.87;;;6.17;;
787;SDS011;16074;42.708;23.312;2022-10-17T10:04:59;7.13;;;6.50;;
787;SDS011;16074;42.708;23.312;2022-10-17T10:07:32;5.70;;;5.20;;
787;SDS011;16074;42.708;23.312;2022-10-17T10:10:02;5.87;;;5.37;;
787;SDS011;16074;42.708;23.312;2022-10-17T10:12:33;6.40;;;5.90;;
787;SDS011;16074;42.708;23.312;2022-10-17T10:15:26;4.90;;;4.50;;
787;SDS011;16074;42.708;23.312;2022-10-17T10:17:59;4.37;;;3.97;;
787;SDS011;16074;42.708;23.312;2022-10-17T10:20:29;5.60;;;5.20;;
787;SDS011;16074;42.708;23.312;2022-10-17T10:23:06;4.03;;;3.83;;
787;SDS011;16074;42.708;23.312;2022-10-17T10:25:47;4.33;;;3.97;;
787;SDS011;16074;42.708;23.312;2022-10-17T10:28:19;3.20;;;3.00;;
787;SDS011;16074;42.708;23.312;2022-10-17T10:30:53;3.33;;;3.03;;
787;SDS011;16074;42.708;23.312;2022-10-17T10:33:24;3.20;;;2.40;;
787;SDS011;16074;42.708;23.312;2022-10-17T10:35:56;2.93;;;2.73;;
787;SDS011;16074;42.708;23.312;2022-10-17T10:38:27;3.57;;;3.33;;
787;SDS011;16074;42.708;23.312;2022-10-17T10:41:00;4.07;;;3.40;;
787;SDS011;16074;42.708;23.312;2022-10-17T10:43:33;3.33;;;3.13;;
787;SDS011;16074;42.708;23.312;2022-10-17T10:46:14;3.30;;;3.00;;
787;SDS011;16074;42.708;23.312;2022-10-17T10:48:49;4.20;;;3.80;;
787;SDS011;16074;42.708;23.312;2022-10-17T10:51:18;4.00;;;3.67;;
787;SDS011;16074;42.708;23.312;2022-10-17T10:53:51;3.10;;;3.00;;
787;SDS011;16074;42.708;23.312;2022-10-17T10:56:27;4.07;;;3.77;;
787;SDS011;16074;42.708;23.312;2022-10-17T10:59:02;4.00;;;3.53;;
787;SDS011;16074;42.708;23.312;2022-10-17T11:01:40;5.97;;;3.60;;
787;SDS011;16074;42.708;23.312;2022-10-17T11:04:16;4.00;;;3.70;;
787;SDS011;16074;42.708;23.312;2022-10-17T11:06:51;3.20;;;3.00;;
787;SDS011;16074;42.708;23.312;2022-10-17T11:09:24;4.27;;;3.77;;
787;SDS011;16074;42.708;23.312;2022-10-17T11:12:00;4.30;;;3.77;;
787;SDS011;16074;42.708;23.312;2022-10-17T11:14:39;3.50;;;3.30;;
787;SDS011;16074;42.708;23.312;2022-10-17T11:17:16;3.07;;;2.97;;
787;SDS011;16074;42.708;23.312;2022-10-17T11:19:55;3.40;;;3.20;;
787;SDS011;16074;42.708;23.312;2022-10-17T11:22:31;4.73;;;4.33;;
787;SDS011;16074;42.708;23.312;2022-10-17T11:25:03;4.17;;;3.87;;
787;SDS011;16074;42.708;23.312;2022-10-17T11:27:35;4.10;;;3.70;;
787;SDS011;16074;42.708;23.312;2022-10-17T11:30:03;2.90;;;2.80;;
787;SDS011;16074;42.708;23.312;2022-10-17T11:32:35;4.23;;;3.33;;
787;SDS011;16074;42.708;23.312;2022-10-17T11:35:12;3.10;;;2.90;;
787;SDS011;16074;42.708;23.312;2022-10-17T11:37:46;7.63;;;3.60;;
787;SDS011;16074;42.708;23.312;2022-10-17T11:40:20;3.70;;;3.40;;
787;SDS011;16074;42.708;23.312;2022-10-17T11:42:57;4.10;;;3.80;;
787;SDS011;16074;42.708;23.312;2022-10-17T11:45:28;3.17;;;3.07;;
787;SDS011;16074;42.708;23.312;2022-10-17T11:48:03;3.80;;;3.60;;
787;SDS011;16074;42.708;23.312;2022-10-17T11:50:38;3.70;;;3.40;;
787;SDS011;16074;42.708;23.312;2022-10-17T11:53:30;3.83;;;3.50;;
787;SDS011;16074;42.708;23.312;2022-10-17T11:56:09;3.80;;;3.50;;
787;SDS011;16074;42.708;23.312;2022-10-17T11:58:40;3.50;;;3.30;;
787;SDS011;16074;42.708;23.312;2022-10-17T12:01:14;5.03;;;3.60;;
787;SDS011;16074;42.708;23.312;2022-10-17T12:03:56;3.10;;;3.00;;
787;SDS011;16074;42.708;23.312;2022-10-17T12:06:36;3.70;;;3.50;;
787;SDS011;16074;42.708;23.312;2022-10-17T12:09:15;4.00;;;3.80;;
787;SDS011;16074;42.708;23.312;2022-10-17T12:11:51;3.20;;;3.00;;
787;SDS011;16074;42.708;23.312;2022-10-17T12:14:36;4.53;;;4.23;;
787;SDS011;16074;42.708;23.312;2022-10-17T12:17:20;3.60;;;3.30;;
787;SDS011;16074;42.708;23.312;2022-10-17T12:19:54;3.50;;;3.30;;
787;SDS011;16074;42.708;23.312;2022-10-17T12:22:53;4.57;;;3.67;;
787;SDS011;16074;42.708;23.312;2022-10-17T12:25:23;3.60;;;3.27;;
787;SDS011;16074;42.708;23.312;2022-10-17T12:28:04;3.70;;;3.50;;
787;SDS011;16074;42.708;23.312;2022-10-17T12:30:53;3.83;;;3.53;;
787;SDS011;16074;42.708;23.312;2022-10-17T12:33:26;4.53;;;4.20;;
787;SDS011;16074;42.708;23.312;2022-10-17T12:42:43;4.47;;;4.17;;
787;SDS011;16074;42.708;23.312;2022-10-17T12:51:20;2.87;;;2.77;;
787;SDS011;16074;42.708;23.312;2022-10-17T12:54:08;3.40;;;3.20;;
787;SDS011;16074;42.708;23.312;2022-10-17T12:56:39;2.77;;;2.67;;
787;SDS011;16074;42.708;23.312;2022-10-17T12:59:12;3.83;;;3.53;;
787;SDS011;16074;42.708;23.312;2022-10-17T13:01:44;6.13;;;3.93;;
787;SDS011;16074;42.708;23.312;2022-10-17T13:04:15;3.17;;;2.90;;
787;SDS011;16074;42.708;23.312;2022-10-17T13:06:45;3.20;;;3.10;;
787;SDS011;16074;42.708;23.312;2022-10-17T13:09:17;3.80;;;3.50;;
787;SDS011;16074;42.708;23.312;2022-10-17T13:11:50;3.20;;;3.00;;
787;SDS011;16074;42.708;23.312;2022-10-17T13:14:21;3.33;;;3.13;;
787;SDS011;16074;42.708;23.312;2022-10-17T13:16:52;3.40;;;3.20;;
787;SDS011;16074;42.708;23.312;2022-10-17T13:19:22;4.30;;;4.00;;
787;SDS011;16074;42.708;23.312;2022-10-17T13:21:52;4.30;;;4.00;;
787;SDS011;16074;42.708;23.312;2022-10-17T13:24:29;3.47;;;3.17;;
787;SDS011;16074;42.708;23.312;2022-10-17T13:27:00;4.00;;;3.70;;
787;SDS011;16074;42.708;23.312;2022-10-17T13:29:30;3.97;;;3.70;;
787;SDS011;16074;42.708;23.312;2022-10-17T13:31:59;3.40;;;3.10;;
787;SDS011;16074;42.708;23.312;2022-10-17T13:34:30;4.40;;;4.00;;
787;SDS011;16074;42.708;23.312;2022-10-17T13:37:00;3.40;;;3.20;;
787;SDS011;16074;42.708;23.312;2022-10-17T13:39:33;4.00;;;3.70;;
787;SDS011;16074;42.708;23.312;2022-10-17T13:42:24;4.03;;;3.73;;
787;SDS011;16074;42.708;23.312;2022-10-17T13:44:57;3.60;;;3.40;;
787;SDS011;16074;42.708;23.312;2022-10-17T13:47:26;3.80;;;3.53;;
787;SDS011;16074;42.708;23.312;2022-10-17T13:49:57;3.30;;;3.10;;
787;SDS011;16074;42.708;23.312;2022-10-17T13:52:26;6.90;;;3.27;;
787;SDS011;16074;42.708;23.312;2022-10-17T13:55:06;3.80;;;3.50;;
787;SDS011;16074;42.708;23.312;2022-10-17T13:57:42;3.80;;;3.50;;
787;SDS011;16074;42.708;23.312;2022-10-17T14:00:14;3.43;;;3.23;;
787;SDS011;16074;42.708;23.312;2022-10-17T14:02:45;4.10;;;3.80;;
787;SDS011;16074;42.708;23.312;2022-10-17T14:05:16;4.33;;;3.93;;
787;SDS011;16074;42.708;23.312;2022-10-17T14:07:49;5.10;;;4.67;;
787;SDS011;16074;42.708;23.312;2022-10-17T14:10:39;4.20;;;3.90;;
787;SDS011;16074;42.708;23.312;2022-10-17T14:13:16;6.10;;;4.47;;
787;SDS011;16074;42.708;23.312;2022-10-17T14:15:49;5.73;;;4.43;;
787;SDS011;16074;42.708;23.312;2022-10-17T14:18:19;4.40;;;4.10;;
787;SDS011;16074;42.708;23.312;2022-10-17T14:20:51;7.43;;;4.50;;
787;SDS011;16074;42.708;23.312;2022-10-17T14:23:41;4.30;;;4.03;;
787;SDS011;16074;42.708;23.312;2022-10-17T14:26:12;4.80;;;4.50;;
787;SDS011;16074;42.708;23.312;2022-10-17T14:28:42;5.20;;;4.47;;
787;SDS011;16074;42.708;23.312;2022-10-17T14:34:00;4.27;;;3.87;;
787;SDS011;16074;42.708;23.312;2022-10-17T14:36:31;4.50;;;4.20;;
787;SDS011;16074;42.708;23.312;2022-10-17T14:39:01;4.90;;;4.60;;
787;SDS011;16074;42.708;23.312;2022-10-17T14:41:41;5.43;;;4.63;;
787;SDS011;16074;42.708;23.312;2022-10-17T14:44:14;4.77;;;4.43;;
787;SDS011;16074;42.708;23.312;2022-10-17T14:46:47;5.17;;;4.77;;
787;SDS011;16074;42.708;23.312;2022-10-17T14:49:22;4.20;;;3.90;;
787;SDS011;16074;42.708;23.312;2022-10-17T14:54:55;6.10;;;4.73;;
787;SDS011;16074;42.708;23.312;2022-10-17T14:57:25;4.80;;;4.50;;
787;SDS011;16074;42.708;23.312;2022-10-17T14:59:56;4.50;;;4.10;;
787;SDS011;16074;42.708;23.312;2022-10-17T15:02:27;5.50;;;4.90;;
787;SDS011;16074;42.708;23.312;2022-10-17T15:04:56;5.87;;;5.47;;
787;SDS011;16074;42.708;23.312;2022-10-17T15:07:24;5.47;;;5.03;;
787;SDS011;16074;42.708;23.312;2022-10-17T15:09:53;4.70;;;4.03;;
787;SDS011;16074;42.708;23.312;2022-10-17T15:12:21;4.80;;;4.40;;
787;SDS011;16074;42.708;23.312;2022-10-17T15:14:51;6.20;;;5.70;;
787;SDS011;16074;42.708;23.312;2022-10-17T15:17:21;6.00;;;5.50;;
787;SDS011;16074;42.708;23.312;2022-10-17T15:19:54;5.43;;;4.93;;
787;SDS011;16074;42.708;23.312;2022-10-17T15:22:22;5.37;;;4.97;;
787;SDS011;16074;42.708;23.312;2022-10-17T15:24:51;6.47;;;5.70;;
787;SDS011;16074;42.708;23.312;2022-10-17T15:27:20;5.10;;;4.73;;
787;SDS011;16074;42.708;23.312;2022-10-17T15:29:49;6.47;;;5.73;;
787;SDS011;16074;42.708;23.312;2022-10-17T15:32:18;7.20;;;5.50;;
787;SDS011;16074;42.708;23.312;2022-10-17T15:34:46;5.60;;;5.10;;
787;SDS011;16074;42.708;23.312;2022-10-17T15:37:17;7.40;;;6.80;;
787;SDS011;16074;42.708;23.312;2022-10-17T15:39:48;6.40;;;5.93;;
787;SDS011;16074;42.708;23.312;2022-10-17T15:42:19;6.20;;;5.70;;
787;SDS011;16074;42.708;23.312;2022-10-17T15:44:48;6.60;;;6.10;;